Flight Track Log - Related Links

Times and Time Zones

All times are in EDT time to prevent confusion due to time zone crossing. See the DAL268 flight status page for this flight to view local times or setup timezone preferences in your user account.

Time Position Orientation Groundspeed Altitude Reporting Facility
EDT Latitude Longitude Course Direction KTS MPH feet Rate Location/Type
Tue 03:36:41 PM 37.6109 -122.3780 360° North 96 110  Level FlightAware ADS-B
Tue 03:36:56 PM 37.6194 -122.3720 29° Northeast 165 190 1,241 Level FlightAware ADS-B
Tue 03:37:10 PM 37.6293 -122.3660 26° Northeast 171 197 600 2,667 Climbing FlightAware ADS-B
Tue 03:37:14 PM 37.6320 -122.3630 41° Northeast 170 196 800 3,273 Climbing FlightAware ADS-B
Tue 03:37:21 PM 37.6354 -122.3590 43° Northeast 167 192 1,200 3,600 Climbing FlightAware ADS-B
Tue 03:37:24 PM 37.6370 -122.3570 45° Northeast 166 191 1,400 2,769 Climbing FlightAware ADS-B
Tue 03:37:34 PM 37.6426 -122.3490 49° Northeast 173 199 1,800 1,636 Climbing FlightAware ADS-B
Tue 03:37:46 PM 37.6493 -122.3390 50° Northeast 187 215 2,000 1,556 Climbing FlightAware ADS-B
Tue 03:38:01 PM 37.6581 -122.3260 49° Northeast 204 235 2,500 1,875 Climbing FlightAware ADS-B
Tue 03:38:18 PM 37.6692 -122.3100 49° Northeast 223 257 3,000 1,636 Climbing FlightAware ADS-B
Tue 03:38:34 PM 37.6812 -122.2940 47° Northeast 241 277 3,400 1,714 Climbing FlightAware ADS-B
Tue 03:38:53 PM 37.6961 -122.2730 48° Northeast 263 303 4,000 2,167 Climbing FlightAware ADS-B
Tue 03:39:10 PM 37.7102 -122.2540 47° Northeast 271 312 4,700 3,136 Climbing FlightAware ADS-B
Tue 03:39:37 PM 37.7336 -122.2210 48° Northeast 270 311 6,300 3,706 Climbing FlightAware ADS-B
Tue 03:39:44 PM 37.7385 -122.2120 55° Northeast 267 307 6,800 4,000 Climbing FlightAware ADS-B
Tue 03:39:49 PM 37.7417 -122.2060 56° Northeast 266 306 7,100 3,273 Climbing FlightAware ADS-B
Tue 03:39:55 PM 37.7455 -122.1980 59° Northeast 265 305 7,400 3,000 Climbing FlightAware ADS-B
Tue 03:40:01 PM 37.7487 -122.1890 66° East 266 306 7,700 2,824 Climbing FlightAware ADS-B
Tue 03:40:12 PM 37.7540 -122.1730 67° East 266 306 8,200 2,444 Climbing FlightAware ADS-B
Tue 03:40:28 PM 37.7604 -122.1500 71° East 271 312 8,800 2,250 Climbing FlightAware ADS-B
Tue 03:40:44 PM 37.7670 -122.1260 71° East 275 316 9,400 2,129 Climbing FlightAware ADS-B
Tue 03:40:59 PM 37.7739 -122.1020 70° East 282 325 9,900 1,174 Climbing FlightAware ADS-B
Tue 03:41:30 PM 37.7882 -122.0510 70° East 315 362 10,300 646 Climbing FlightAware ADS-B
Tue 03:42:04 PM 37.8056 -121.9880 71° East 348 400 10,600 554 Climbing FlightAware ADS-B
Tue 03:42:35 PM 37.8230 -121.9260 70° East 381 438 10,900 1,180 Climbing FlightAware ADS-B
Tue 03:43:05 PM 37.8408 -121.8610 71° East 394 453 11,800 1,900 Climbing FlightAware ADS-B
Tue 03:43:35 PM 37.8590 -121.7950 71° East 398 458 12,800 1,900 Climbing FlightAware ADS-B
Tue 03:44:05 PM 37.8776 -121.7280 71° East 406 467 13,700 1,700 Climbing FlightAware ADS-B
Tue 03:44:35 PM 37.8965 -121.6590 71° East 414 476 14,500 1,770 Climbing FlightAware ADS-B
Tue 03:45:06 PM 37.9158 -121.5890 71° East 420 483 15,500 1,889 Climbing FlightAware ADS-B
Tue 03:45:29 PM 37.9294 -121.5340 73° East 426 490 16,200 1,684 Climbing FlightAware ADS-B
Tue 03:46:03 PM 37.9447 -121.4510 77° East 430 495 17,100 1,469 Climbing FlightAware ADS-B
Tue 03:47:07 PM 37.9760 -121.2910 76° East 446 513 18,600 1,423 Climbing FlightAware ADS-B
Tue 03:47:40 PM 37.9930 -121.2090 75° East 453 521 19,400 1,364 Climbing FlightAware ADS-B
Tue 03:48:13 PM 38.0120 -121.1230 74° East 459 528 20,100 1,521 Climbing FlightAware ADS-B
Tue 03:48:51 PM 38.0290 -121.0270 77° East 461 531 21,200 1,333 Climbing FlightAware ADS-B
Tue 03:49:25 PM 38.0460 -120.9350 77° East 473 544 21,700 1,114 Climbing FlightAware ADS-B
Tue 03:50:01 PM 38.0640 -120.8350 77° East 477 549 22,500 1,333 Climbing FlightAware ADS-B
Tue 03:50:37 PM 38.0830 -120.7360 76° East 480 552 23,300 1,333 Climbing FlightAware ADS-B
Tue 03:51:13 PM 38.1020 -120.6360 76° East 485 558 24,100 1,182 Climbing FlightAware ADS-B
Tue 03:51:43 PM 38.1170 -120.5540 77° East 489 563 24,600 771 Climbing FlightAware ADS-B
Tue 03:52:23 PM 38.1380 -120.4420 77° East 493 567 25,000 711 Climbing FlightAware ADS-B
Tue 03:52:59 PM 38.1560 -120.3450 77° East 491 565 25,500 857 Climbing FlightAware ADS-B
Tue 03:53:33 PM 38.1740 -120.2440 77° East 497 572 26,000 938 Climbing FlightAware ADS-B
Tue 03:54:03 PM 38.1890 -120.1610 77° East 500 575 26,500 1,125 Climbing FlightAware ADS-B
Tue 03:54:37 PM 38.2060 -120.0670 77° East 502 578 27,200 1,216 Climbing FlightAware ADS-B
Tue 03:55:17 PM 38.2280 -119.9460 77° East 503 579 28,000 1,250 Climbing FlightAware ADS-B
Tue 03:55:49 PM 38.2440 -119.8560 77° East 504 580 28,700 1,455 Climbing FlightAware ADS-B
Tue 03:56:23 PM 38.2620 -119.7550 77° East 500 575 29,600 1,560 Climbing FlightAware ADS-B
Tue 03:56:39 PM 38.2568 -119.7827 256° West 499 574 30,000 1,200 Climbing FlightAware ADS-B
Tue 03:57:18 PM 38.2894 -119.5981 77° East 498 573 30,700 1,286 Climbing FlightAware ADS-B
Tue 03:58:03 PM 38.2958 -119.5611 77° East 491 565 31,800 1,187 Climbing FlightAware ADS-B
Tue 03:58:49 PM 38.3340 -119.3420 77° East 494 568 32,500 1,059 Climbing FlightAware ADS-B
Tue 03:58:54 PM 38.3126 -119.4650 258° West 494 568 32,700 1,143 Climbing FlightAware ADS-B
Tue 03:59:52 PM 38.3649 -119.1627 77° East 492 566 33,700 955 Climbing FlightAware ADS-B
Tue 04:00:22 PM 38.3790 -119.0796 78° East 491 565 34,100 818 Climbing FlightAware ADS-B
Tue 04:00:58 PM 38.3951 -118.9756 79° East 495 570 34,600 675 Climbing FlightAware ADS-B
Tue 04:01:42 PM 38.4140 -118.8490 79° East 499 574 35,000 296 Climbing FlightAware ADS-B
Tue 04:02:19 PM 38.4280 -118.7570 79° East 499 574 35,000  Level FlightAware ADS-B
Tue 04:02:54 PM 38.4450 -118.6440 79° East 492 566 35,000  Level FlightAware ADS-B
Tue 04:03:42 PM 38.4660 -118.5090 79° East 495 570 35,000  Level FlightAware ADS-B
Tue 04:04:16 PM 38.4810 -118.4100 79° East 498 573 35,000  Level FlightAware ADS-B
Tue 04:04:52 PM 38.4960 -118.3090 79° East 498 573 35,000  Level FlightAware ADS-B
Tue 04:05:30 PM 38.5120 -118.1950 80° East 498 573 35,000  Level FlightAware ADS-B
Tue 04:06:01 PM 38.5250 -118.1080 79° East 498 573 35,000  Level FlightAware ADS-B
Tue 04:06:38 PM 38.5410 -118.0020 79° East 498 573 35,000  Level FlightAware ADS-B
Tue 04:07:09 PM 38.5520 -117.9240 80° East 498 573 35,000  Level FlightAware ADS-B
Tue 04:07:45 PM 38.5660 -117.8350 79° East 498 573 35,000  Level FlightAware ADS-B
Tue 04:08:19 PM 38.5790 -117.7510 79° East 498 573 35,000  Level FlightAware ADS-B
Tue 04:08:55 PM 38.5920 -117.6630 79° East 498 573 35,000  Level FlightAware ADS-B
Tue 04:09:32 PM 38.6060 -117.5720 79° East 498 573 35,000  Level FlightAware ADS-B
Tue 04:10:08 PM 38.6190 -117.4830 79° East 498 573 35,000  Level FlightAware ADS-B
Tue 04:10:46 PM 38.6330 -117.3900 79° East 498 573 35,000  Level FlightAware ADS-B
Tue 04:11:29 PM 38.6500 -117.2840 78° East 498 573 35,000  Level FlightAware ADS-B
Tue 04:12:06 PM 38.6630 -117.1930 80° East 498 573 35,000  Level FlightAware ADS-B
Tue 04:12:42 PM 38.6770 -117.1040 79° East 498 573 35,000  Level FlightAware ADS-B
Tue 04:13:16 PM 38.6890 -117.0210 79° East 498 573 35,000  Level FlightAware ADS-B
Tue 04:13:52 PM 38.7030 -116.9320 79° East 498 573 35,000  Level FlightAware ADS-B
Tue 04:14:28 PM 38.7160 -116.8430 79° East 498 573 35,000  Level FlightAware ADS-B
Tue 04:15:04 PM 38.7300 -116.7540 79° East 498 573 35,000  Level FlightAware ADS-B
Tue 04:15:41 PM 38.7440 -116.6630 79° East 498 573 35,000  Level FlightAware ADS-B
Tue 04:16:17 PM 38.7570 -116.5750 79° East 498 573 35,000 -280 Level FlightAware ADS-B
Tue 04:18:00 PM 38.8098 -116.2819 77° East  Level FlightAware Approximate
Tue 04:19:00 PM 38.8390 -116.1101 80° East  Level FlightAware Approximate
Tue 04:20:00 PM 38.8631 -115.9374 80° East  Level FlightAware Approximate
Tue 04:21:00 PM 38.8870 -115.7647 80° East  Level FlightAware Approximate
Tue 04:22:00 PM 38.9107 -115.5918 80° East  Level FlightAware Approximate
Tue 04:23:00 PM 38.9341 -115.4189 80° East  Level FlightAware Approximate
Tue 04:24:00 PM 38.9573 -115.2458 80° East  Level FlightAware Approximate
Tue 04:25:00 PM 38.9805 -115.0726 80° East  Level FlightAware Approximate
Tue 04:26:00 PM 39.0034 -114.8994 80° East  Level FlightAware Approximate
Tue 04:27:00 PM 39.0260 -114.7260 80° East  Level FlightAware Approximate
Tue 04:28:00 PM 39.0484 -114.5525 81° East  Level FlightAware Approximate
Tue 04:29:00 PM 39.0705 -114.3789 81° East  Level FlightAware Approximate
Tue 04:29:58 PM 39.0441 -113.9427 81° East 506 582 31,000  Level FlightAware ADS-B
Tue 04:30:00 PM 39.0924 -114.2052 81° East  Level FlightAware Approximate
Tue 04:31:02 PM 39.0488 -113.7496 88° East 507 583 31,000  Level FlightAware ADS-B
Tue 04:31:41 PM 39.0510 -113.6339 89° East 507 583 31,000  Level FlightAware ADS-B
Tue 04:32:23 PM 39.0533 -113.5063 89° East 507 583 31,000  Level FlightAware ADS-B
Tue 04:32:53 PM 39.0550 -113.4178 89° East 507 583 31,000  Level FlightAware ADS-B
Tue 04:33:24 PM 39.0567 -113.3254 89° East 507 583 31,000  Level FlightAware ADS-B
Tue 04:33:55 PM 39.0585 -113.2316 89° East 506 582 31,000  Level FlightAware ADS-B
Tue 04:34:58 PM 39.0619 -113.0423 89° East 507 583 31,000  Level FlightAware ADS-B
Tue 04:35:29 PM 39.0635 -112.9481 89° East 507 583 31,000  Level FlightAware ADS-B
Tue 04:35:59 PM 39.0650 -112.8600 89° East 508 585 31,000 92 Level FlightAware ADS-B
Tue 04:36:34 PM 39.0670 -112.7570 89° East 509 586 31,100 655 Climbing FlightAware ADS-B
Tue 04:36:54 PM 39.0677 -112.6917 89° East 507 583 31,600 1,200 Climbing FlightAware ADS-B
Tue 04:37:19 PM 39.0688 -112.6160 89° East 505 581 32,000 964 Climbing FlightAware ADS-B
Tue 04:37:50 PM 39.0701 -112.5230 89° East 507 583 32,500 947 Climbing FlightAware ADS-B
Tue 04:37:57 PM 39.0704 -112.5024 89° East 506 582 32,600 1,000 Climbing FlightAware ADS-B
Tue 04:38:20 PM 39.0712 -112.4310 89° East 506 582 33,000 730 Climbing FlightAware ADS-B
Tue 04:39:11 PM 39.0730 -112.2796 89° East 510 587 33,500 643 Climbing FlightAware ADS-B
Tue 04:39:16 PM 39.0732 -112.2640 89° East 510 587 33,600 800 Climbing FlightAware ADS-B
Tue 04:39:41 PM 39.0740 -112.1872 89° East 511 588 33,900 600 Climbing FlightAware ADS-B
Tue 04:39:46 PM 39.0742 -112.1710 89° East 512 589 33,900 500 Level FlightAware ADS-B
Tue 04:40:17 PM 39.0751 -112.0790 89° East 512 589 34,200 689 Climbing FlightAware ADS-B
Tue 04:40:47 PM 39.0759 -111.9870 89° East 512 589 34,600 727 Climbing FlightAware ADS-B
Tue 04:40:50 PM 39.0760 -111.9780 90° East 512 589 34,600 600 Level FlightAware ADS-B
Tue 04:41:17 PM 39.0766 -111.8960 89° East 512 589 34,900 364 Climbing FlightAware ADS-B
Tue 04:41:56 PM 39.0775 -111.7780 89° East 513 590 35,000 150 Climbing FlightAware ADS-B
Tue 04:41:57 PM 39.0775 -111.7833 270° West 514 592 35,000  Level FlightAware ADS-B
Tue 04:42:44 PM 39.0785 -111.6310 89° East 518 596 35,000  Level FlightAware ADS-B
Tue 04:43:19 PM 39.0790 -111.5220 90° East 518 596 35,000  Level FlightAware ADS-B
Tue 04:43:50 PM 39.0794 -111.4280 90° East 521 600 35,000  Level FlightAware ADS-B
Tue 04:44:25 PM 39.0797 -111.3170 90° East 522 601 35,000  Level FlightAware ADS-B
Tue 04:44:39 PM 39.0798 -111.2799 90° East 522 601 35,000  Level FlightAware ADS-B
Tue 04:45:07 PM 39.0800 -111.1890 90° East 523 602 35,000  Level FlightAware ADS-B
Tue 04:45:11 PM 39.0800 -111.1781 90° East 523 602 35,000  Level FlightAware ADS-B
Tue 04:45:43 PM 39.0801 -111.0752 90° East 524 603 35,000  Level FlightAware ADS-B
Tue 04:45:45 PM 39.0801 -111.0710 90° East 524 603 35,000  Level FlightAware ADS-B
Tue 04:46:17 PM 39.0802 -110.9715 90° East 525 604 35,000  Level FlightAware ADS-B
Tue 04:46:48 PM 39.0801 -110.8817 90° East 526 605 35,000  Level FlightAware ADS-B
Tue 04:47:22 PM 39.0800 -110.7682 90° East 529 609 35,000  Level FlightAware ADS-B
Tue 04:47:52 PM 39.0798 -110.6785 90° East 531 611 35,000  Level FlightAware ADS-B
Tue 04:48:25 PM 39.0795 -110.5706 90° East 532 612 35,000  Level FlightAware ADS-B (KGUC)
Tue 04:49:05 PM 39.0793 -110.5056 90° East 533 613 35,000  Level FlightAware ADS-B (KGUC)
Tue 04:49:39 PM 39.0797 -110.3381 90° East 536 617 35,000  Level FlightAware ADS-B
Tue 04:50:15 PM 39.0908 -110.2236 83° East 537 618 35,000  Level FlightAware ADS-B
Tue 04:50:51 PM 39.1121 -110.1085 77° East 537 618 35,000  Level FlightAware ADS-B
Tue 04:51:24 PM 39.1292 -110.0170 76° East 538 619 35,000  Level FlightAware ADS-B
Tue 04:51:55 PM 39.1487 -109.9125 76° East 538 619 35,000  Level FlightAware ADS-B
Tue 04:52:13 PM 39.1568 -109.8694 76° East 538 619 35,000  Level FlightAware ADS-B (KGUC)
Tue 04:52:47 PM 39.1790 -109.7512 76° East 536 617 35,000  Level FlightAware ADS-B
Tue 04:53:17 PM 39.1966 -109.6580 76° East 536 617 35,000  Level FlightAware ADS-B
Tue 04:53:47 PM 39.2133 -109.5692 76° East 535 616 35,000  Level FlightAware ADS-B
Tue 04:54:19 PM 39.2322 -109.4683 76° East 535 616 35,000  Level FlightAware ADS-B
Tue 04:54:49 PM 39.2499 -109.3736 76° East 536 617 35,000  Level FlightAware ADS-B
Tue 04:55:19 PM 39.2673 -109.2802 76° East 537 618 35,000  Level FlightAware ADS-B
Tue 04:55:49 PM 39.2832 -109.1945 77° East 538 619 35,000  Level FlightAware ADS-B
Tue 04:56:19 PM 39.3016 -109.0946 77° East 538 619 35,000  Level FlightAware ADS-B
Tue 04:56:49 PM 39.3189 -109.0000 77° East 536 617 35,000  Level FlightAware ADS-B
Tue 04:57:19 PM 39.3358 -108.9070 77° East 537 618 35,000  Level FlightAware ADS-B
Tue 04:57:50 PM 39.3533 -108.8094 77° East 537 618 35,000  Level FlightAware ADS-B
Tue 04:58:20 PM 39.3701 -108.7136 77° East 539 620 35,000  Level FlightAware ADS-B
Tue 04:58:53 PM 39.3879 -108.6112 77° East 541 623 35,000  Level FlightAware ADS-B
Tue 04:59:24 PM 39.4037 -108.5202 77° East 542 624 35,000  Level FlightAware ADS-B
Tue 05:00:03 PM 39.4261 -108.3906 77° East 542 624 35,000  Level FlightAware ADS-B
Tue 05:00:36 PM 39.4433 -108.2906 77° East 543 625 35,000  Level FlightAware ADS-B
Tue 05:01:07 PM 39.4608 -108.1876 77° East 544 626 35,000  Level FlightAware ADS-B (KANK)
Tue 05:01:41 PM 39.4788 -108.0823 78° East 545 627 35,000  Level FlightAware ADS-B (KGUC)
Tue 05:02:16 PM 39.4980 -107.9685 78° East 546 628 35,000  Level FlightAware ADS-B
Tue 05:02:46 PM 39.5140 -107.8734 78° East 547 629 35,000  Level FlightAware ADS-B (KGUC)
Tue 05:03:18 PM 39.5306 -107.7741 78° East 546 628 35,000  Level FlightAware ADS-B
Tue 05:03:50 PM 39.5479 -107.6698 78° East 547 629 35,000  Level FlightAware ADS-B
Tue 05:04:20 PM 39.5632 -107.5772 78° East 549 632 35,000  Level FlightAware ADS-B
Tue 05:04:54 PM 39.5815 -107.4655 78° East 552 635 35,000  Level FlightAware ADS-B
Tue 05:05:27 PM 39.5992 -107.3564 78° East 554 638 35,000  Level FlightAware ADS-B
Tue 05:05:58 PM 39.6148 -107.2607 78° East 556 640 35,000  Level FlightAware ADS-B
Tue 05:06:29 PM 39.6311 -107.1595 78° East 556 640 35,000  Level FlightAware ADS-B
Tue 05:06:59 PM 39.6472 -107.0591 78° East 557 641 35,000  Level FlightAware ADS-B
Tue 05:07:30 PM 39.6619 -106.9667 78° East 556 640 35,000  Level FlightAware ADS-B
Tue 05:08:00 PM 39.6769 -106.8722 78° East 556 640 35,000  Level FlightAware ADS-B
Tue 05:08:32 PM 39.6944 -106.7609 78° East 556 640 35,000  Level FlightAware ADS-B
Tue 05:09:05 PM 39.7105 -106.6580 78° East 557 641 35,000  Level FlightAware ADS-B (KEIK)
Tue 05:09:45 PM 39.7373 -106.5190 76° East 561 646 35,000  Level FlightAware ADS-B (KEIK)
Tue 05:10:24 PM 39.7713 -106.3933 71° East 564 649 35,000  Level FlightAware ADS-B (KEIK)
Tue 05:11:04 PM 39.7972 -106.3077 68° East 564 649 35,000  Level FlightAware ADS-B (KEIK)
Tue 05:11:34 PM 39.8360 -106.1750 69° East 564 649 35,000  Level FlightAware ADS-B
Tue 05:12:04 PM 39.8637 -106.0809 69° East 565 650 35,000  Level FlightAware ADS-B (KEIK)
Tue 05:12:35 PM 39.8932 -105.9808 69° East 565 650 35,000  Level FlightAware ADS-B (KEIK)
Tue 05:13:13 PM 39.9286 -105.8607 69° East 564 649 35,000  Level FlightAware ADS-B (KEIK)
Tue 05:13:47 PM 39.9574 -105.7635 69° East 564 649 35,000  Level FlightAware ADS-B (KEIK)
Tue 05:14:25 PM 39.9953 -105.6352 69° East 564 649 35,000  Level FlightAware ADS-B (KEIK)
Tue 05:14:59 PM 40.0214 -105.5468 69° East 564 649 35,000  Level FlightAware ADS-B (KEIK)
Tue 05:15:49 PM 40.0733 -105.3698 69° East 562 647 35,000  Level FlightAware ADS-B (KEIK)
Tue 05:16:28 PM 40.1111 -105.2403 69° East 562 647 35,000  Level FlightAware ADS-B (KEIK)
Tue 05:16:59 PM 40.1381 -105.1472 69° East 562 647 35,000  Level FlightAware ADS-B (KEIK)
Tue 05:17:30 PM 40.1668 -105.0477 69° East 562 647 35,000  Level FlightAware ADS-B (KEIK)
Tue 05:18:00 PM 40.1933 -104.9554 69° East 562 647 35,000  Level FlightAware ADS-B (KEIK)
Tue 05:18:40 PM 40.2307 -104.8242 69° East 562 647 35,000  Level FlightAware ADS-B (KEIK)
Tue 05:19:13 PM 40.2590 -104.7220 70° East 562 647 35,000  Level FlightAware ADS-B
Tue 05:19:18 PM 40.2641 -104.7055 68° East 562 647 35,000  Level FlightAware ADS-B (KEIK)
Tue 05:19:49 PM 40.2909 -104.6093 70° East 562 647 35,000  Level FlightAware ADS-B (KEIK)
Tue 05:20:22 PM 40.3210 -104.4990 70° East 561 646 35,000  Level FlightAware ADS-B
Tue 05:20:27 PM 40.3251 -104.4862 67° East 562 647 35,000  Level FlightAware ADS-B (KEIK)
Tue 05:21:00 PM 40.3538 -104.3825 70° East 562 647 35,000  Level FlightAware ADS-B (KEIK)
Tue 05:21:31 PM 40.3802 -104.2868 70° East 561 646 35,000  Level FlightAware ADS-B (KEIK)
Tue 05:22:12 PM 40.4186 -104.1473 70° East 560 644 35,000  Level FlightAware ADS-B (KEIK)
Tue 05:22:43 PM 40.4450 -104.0520 70° East 560 644 35,000  Level FlightAware ADS-B
Tue 05:22:52 PM 40.4538 -104.0186 71° East 562 647 35,000  Level FlightAware ADS-B (KEIK)
Tue 05:23:23 PM 40.4743 -103.9429 70° East 563 648 35,000  Level FlightAware ADS-B (KEIK)
Tue 05:23:54 PM 40.4984 -103.8543 70° East 562 647 35,000  Level FlightAware ADS-B (KEIK)
Tue 05:24:28 PM 40.5370 -103.7110 70° East 563 648 35,000  Level FlightAware ADS-B
Tue 05:24:29 PM 40.5366 -103.7129 254° West 563 648 35,000  Level FlightAware ADS-B (KEIK)
Tue 05:25:04 PM 40.5690 -103.5940 70° East 563 648 35,000  Level FlightAware ADS-B
Tue 05:25:36 PM 40.5960 -103.4920 71° East 563 648 35,000  Level FlightAware ADS-B
Tue 05:25:40 PM 40.5994 -103.4786 71° East 565 650 35,000  Level FlightAware ADS-B (KEIK)
Tue 05:26:11 PM 40.6250 -103.3810 71° East 564 649 35,000  Level FlightAware ADS-B
Tue 05:26:48 PM 40.6580 -103.2590 70° East 564 649 35,000  Level FlightAware ADS-B
Tue 05:27:20 PM 40.6850 -103.1550 71° East 563 648 35,000  Level FlightAware ADS-B
Tue 05:27:56 PM 40.7160 -103.0390 71° East 563 648 35,000  Level FlightAware ADS-B
Tue 05:28:32 PM 40.7460 -102.9210 71° East 564 649 35,000  Level FlightAware ADS-B
Tue 05:29:08 PM 40.7760 -102.8060 71° East 565 650 35,000  Level FlightAware ADS-B
Tue 05:29:38 PM 40.8020 -102.7060 71° East 564 649 35,000  Level FlightAware ADS-B
Tue 05:30:16 PM 40.8330 -102.5880 71° East 561 646 35,000  Level FlightAware ADS-B
Tue 05:30:52 PM 40.8640 -102.4680 71° East 561 646 35,000  Level FlightAware ADS-B
Tue 05:31:26 PM 40.8910 -102.3590 72° East 561 646 35,000  Level FlightAware ADS-B
Tue 05:32:00 PM 40.9200 -102.2460 71° East 561 646 35,000  Level FlightAware ADS-B
Tue 05:32:36 PM 40.9490 -102.1310 72° East 561 646 35,000  Level FlightAware ADS-B
Tue 05:33:13 PM 40.9780 -102.0160 71° East 561 646 35,000  Level FlightAware ADS-B
Tue 05:34:05 PM 41.0180 -101.8580 71° East 561 646 35,000  Level FlightAware ADS-B
Tue 05:34:41 PM 41.0440 -101.7590 71° East 561 646 35,000  Level FlightAware ADS-B
Tue 05:35:17 PM 41.0700 -101.6590 71° East 561 646 35,000  Level FlightAware ADS-B
Tue 05:35:53 PM 41.0960 -101.5600 71° East 561 646 35,000  Level FlightAware ADS-B
Tue 05:36:30 PM 41.1220 -101.4570 71° East 561 646 35,000  Level FlightAware ADS-B
Tue 05:37:06 PM 41.1480 -101.3570 71° East 561 646 35,000  Level FlightAware ADS-B
Tue 05:37:42 PM 41.1740 -101.2580 71° East 561 646 35,000  Level FlightAware ADS-B
Tue 05:38:18 PM 41.2000 -101.1580 71° East 561 646 35,000  Level FlightAware ADS-B
Tue 05:38:54 PM 41.2260 -101.0580 71° East 561 646 35,000  Level FlightAware ADS-B
Tue 05:39:30 PM 41.2520 -100.9580 71° East 561 646 35,000  Level FlightAware ADS-B
Tue 05:40:06 PM 41.2770 -100.8580 72° East 561 646 35,000  Level FlightAware ADS-B
Tue 05:40:43 PM 41.3040 -100.7560 71° East 561 646 35,000  Level FlightAware ADS-B
Tue 05:41:19 PM 41.3300 -100.6560 71° East 561 646 35,000  Level FlightAware ADS-B
Tue 05:41:57 PM 41.3570 -100.5500 71° East 561 646 35,000  Level FlightAware ADS-B
Tue 05:42:33 PM 41.3830 -100.4500 71° East 561 646 35,000  Level FlightAware ADS-B
Tue 05:43:10 PM 41.4090 -100.3470 71° East 561 646 35,000  Level FlightAware ADS-B
Tue 05:45:00 PM 41.4379 -100.0104 83° East  Level Estimated
Tue 05:46:00 PM 41.4533 -99.8266 84° East  Level Estimated
Tue 05:47:00 PM 41.4684 -99.6428 84° East  Level Estimated
Tue 05:47:46 PM 41.6454 -99.1927 84° East 569 655 35,000  Level FlightAware ADS-B
Tue 05:48:49 PM 41.6752 -99.0577 73° East 567 652 35,000  Level FlightAware ADS-B
Tue 05:49:51 PM 41.7218 -98.8454 74° East 566 651 35,000  Level FlightAware ADS-B
Tue 05:50:54 PM 41.7676 -98.6345 74° East 566 651 35,000  Level FlightAware ADS-B
Tue 05:51:46 PM 41.8168 -98.4055 74° East 568 654 35,000  Level FlightAware ADS-B
Tue 05:52:16 PM 41.8600 -98.2027 74° East 569 655 35,000  Level FlightAware ADS-B
Tue 05:52:54 PM 41.8615 -98.1956 74° East 569 655 35,000  Level FlightAware ADS-B
Tue 05:53:35 PM 41.9160 -97.9380 74° East 570 656 35,000  Level FlightAware ADS-B
Tue 05:53:52 PM 41.9043 -97.9921 254° West 569 655 35,000  Level FlightAware ADS-B
Tue 05:54:52 PM 41.9444 -97.7998 74° East 570 656 35,000  Level FlightAware ADS-B
Tue 05:55:22 PM 41.9856 -97.5693 76° East 569 655 35,000  Level FlightAware ADS-B
Tue 05:55:48 PM 41.9931 -97.5084 81° East 569 655 35,000  Level FlightAware ADS-B
Tue 05:56:20 PM 42.0080 -97.3720 82° East 569 655 35,000  Level FlightAware ADS-B
Tue 05:56:54 PM 42.0196 -97.2474 83° East 569 655 35,000 90 Level FlightAware ADS-B
Tue 05:57:27 PM 42.0300 -97.1340 83° East 570 656 35,100 343 Climbing FlightAware ADS-B
Tue 05:58:04 PM 42.0416 -97.0030 83° East 573 659 35,400 429 Climbing FlightAware ADS-B
Tue 05:58:37 PM 42.0510 -96.8900 84° East 576 663 35,600 343 Climbing FlightAware ADS-B
Tue 05:59:14 PM 42.0620 -96.7570 84° East 577 664 35,800 411 Climbing FlightAware ADS-B
Tue 05:59:50 PM 42.0730 -96.6250 84° East 575 662 36,100 448 Climbing FlightAware ADS-B
Tue 06:00:21 PM 42.0810 -96.5220 84° East 574 661 36,300 529 Climbing FlightAware ADS-B
Tue 06:00:58 PM 42.0920 -96.3920 83° East 572 658 36,700 568 Climbing FlightAware ADS-B
Tue 06:01:35 PM 42.1030 -96.2550 84° East 570 656 37,000 286 Climbing FlightAware ADS-B
Tue 06:02:01 PM 42.1092 -96.1695 84° East 569 655 37,000  Level FlightAware ADS-B
Tue 06:02:41 PM 42.1200 -96.0240 84° East 570 656 37,000  Level FlightAware ADS-B
Tue 06:03:16 PM 42.1300 -95.9010 84° East 571 657 37,000  Level FlightAware ADS-B
Tue 06:03:54 PM 42.1400 -95.7670 84° East 571 657 37,000  Level FlightAware ADS-B
Tue 06:04:27 PM 42.1480 -95.6510 85° East 573 659 37,000  Level FlightAware ADS-B
Tue 06:05:04 PM 42.1580 -95.5190 84° East 574 661 37,000  Level FlightAware ADS-B
Tue 06:05:39 PM 42.1670 -95.3940 84° East 576 663 37,000  Level FlightAware ADS-B
Tue 06:06:12 PM 42.1753 -95.2742 85° East 578 665 37,000  Level FlightAware ADS-B
Tue 06:06:54 PM 42.1797 -95.2120 85° East 578 665 37,000  Level FlightAware ADS-B
Tue 06:07:27 PM 42.1938 -95.0058 85° East 580 667 37,000  Level FlightAware ADS-B
Tue 06:07:49 PM 42.1961 -94.9716 85° East 580 667 37,000  Level FlightAware ADS-B
Tue 06:08:19 PM 42.2064 -94.8172 85° East 582 670 37,000  Level FlightAware ADS-B
Tue 06:08:58 PM 42.2138 -94.7047 85° East 582 670 37,000  Level FlightAware ADS-B
Tue 06:09:16 PM 42.2176 -94.6451 85° East 582 670 37,000  Level FlightAware ADS-B (LPVM)
Tue 06:09:58 PM 42.2255 -94.5208 85° East 583 671 37,000  Level FlightAware ADS-B
Tue 06:10:04 PM 42.2306 -94.4403 85° East 583 671 37,000  Level FlightAware ADS-B (LPVM)
Tue 06:10:48 PM 42.2404 -94.2808 85° East 583 671 37,000  Level FlightAware ADS-B (LPVM)
Tue 06:11:30 PM 42.2500 -94.1310 85° East 582 670 37,000  Level FlightAware ADS-B
Tue 06:12:01 PM 42.2560 -94.0230 86° East 581 669 37,000  Level FlightAware ADS-B
Tue 06:12:39 PM 42.2650 -93.8800 85° East 581 669 37,000  Level FlightAware ADS-B
Tue 06:13:00 PM 42.2691 -93.8096 85° East 582 670 37,000  Level FlightAware ADS-B
Tue 06:13:47 PM 42.2790 -93.6380 85° East 583 671 37,000  Level FlightAware ADS-B
Tue 06:14:21 PM 42.2860 -93.5150 86° East 583 671 37,000  Level FlightAware ADS-B
Tue 06:14:57 PM 42.2930 -93.3810 86° East 584 672 37,000  Level FlightAware ADS-B
Tue 06:15:33 PM 42.3000 -93.2540 86° East 584 672 37,000  Level FlightAware ADS-B
Tue 06:16:09 PM 42.3070 -93.1230 86° East 584 672 37,000  Level FlightAware ADS-B
Tue 06:16:43 PM 42.3130 -93.0020 86° East 584 672 37,000  Level FlightAware ADS-B
Tue 06:17:15 PM 42.3190 -92.8830 86° East 584 672 37,000  Level FlightAware ADS-B
Tue 06:17:51 PM 42.3261 -92.7497 86° East 583 671 37,000  Level FlightAware ADS-B (LPVM)
Tue 06:18:29 PM 42.3320 -92.6180 87° East 582 670 37,000  Level FlightAware ADS-B
Tue 06:18:40 PM 42.3346 -92.5730 86° East 582 670 37,000  Level FlightAware ADS-B (LPVM)
Tue 06:19:13 PM 42.3389 -92.4819 86° East 581 669 37,000  Level FlightAware ADS-B (LPVM)
Tue 06:20:11 PM 42.3486 -92.2704 86° East 582 670 37,000  Level FlightAware ADS-B (LPVM)
Tue 06:20:52 PM 42.3560 -92.1000 87° East 582 670 37,000  Level FlightAware ADS-B
Tue 06:21:05 PM 42.3576 -92.0691 86° East 583 671 37,000  Level FlightAware ADS-B (LPVM)
Tue 06:21:52 PM 42.3658 -91.8747 87° East 583 671 37,000  Level FlightAware ADS-B (LPVM)
Tue 06:22:27 PM 42.3710 -91.7484 87° East 583 671 37,000  Level FlightAware ADS-B (LPVM)
Tue 06:23:14 PM 42.3780 -91.5830 87° East 583 671 37,000  Level FlightAware ADS-B
Tue 06:23:51 PM 42.3830 -91.4460 87° East 584 672 37,000  Level FlightAware ADS-B
Tue 06:24:23 PM 42.3870 -91.3300 87° East 584 672 37,000  Level FlightAware ADS-B
Tue 06:25:01 PM 42.3920 -91.1960 87° East 584 672 37,000  Level FlightAware ADS-B
Tue 06:25:37 PM 42.3970 -91.0600 87° East 584 672 37,000  Level FlightAware ADS-B
Tue 06:26:11 PM 42.4010 -90.9350 87° East 584 672 37,000  Level FlightAware ADS-B
Tue 06:26:47 PM 42.4050 -90.8090 87° East 585 673 37,000  Level FlightAware ADS-B
Tue 06:27:14 PM 42.4084 -90.7027 87° East 586 674 37,000  Level FlightAware ADS-B (LPVM)
Tue 06:27:57 PM 42.4130 -90.5490 88° East 585 673 37,000  Level FlightAware ADS-B
Tue 06:28:29 PM 42.4170 -90.4340 87° East 584 672 37,000  Level FlightAware ADS-B
Tue 06:28:58 PM 42.4200 -90.3260 88° East 582 670 37,000  Level FlightAware ADS-B
Tue 06:29:39 PM 42.4230 -90.1850 88° East 580 667 37,000  Level FlightAware ADS-B
Tue 06:30:14 PM 42.4270 -90.0510 88° East 578 665 37,000  Level FlightAware ADS-B
Tue 06:30:47 PM 42.4300 -89.9330 88° East 576 663 37,000  Level FlightAware ADS-B
Tue 06:31:28 PM 42.4330 -89.7910 88° East 573 659 37,000  Level FlightAware ADS-B
Tue 06:32:00 PM 42.4360 -89.6710 88° East 572 658 37,000  Level FlightAware ADS-B
Tue 06:32:35 PM 42.4390 -89.5470 88° East 571 657 37,000  Level FlightAware ADS-B
Tue 06:33:11 PM 42.4410 -89.4200 89° East 570 656 37,000  Level FlightAware ADS-B
Tue 06:33:46 PM 42.4440 -89.3000 88° East 569 655 37,000  Level FlightAware ADS-B
Tue 06:34:23 PM 42.4460 -89.1680 89° East 568 654 37,000  Level FlightAware ADS-B
Tue 06:34:55 PM 42.4480 -89.0550 89° East 568 654 37,000  Level FlightAware ADS-B
Tue 06:35:30 PM 42.4500 -88.9300 89° East 567 652 37,000  Level FlightAware ADS-B
Tue 06:36:07 PM 42.4520 -88.8000 89° East 566 651 37,000  Level FlightAware ADS-B
Tue 06:36:40 PM 42.4540 -88.6860 89° East 564 649 37,000  Level FlightAware ADS-B
Tue 06:37:16 PM 42.4550 -88.5530 89° East 563 648 37,000  Level FlightAware ADS-B
Tue 06:37:51 PM 42.4570 -88.4310 89° East 563 648 37,000  Level FlightAware ADS-B
Tue 06:38:23 PM 42.4580 -88.3180 89° East 565 650 37,000  Level FlightAware ADS-B
Tue 06:39:00 PM 42.4590 -88.1900 89° East 569 655 37,000  Level FlightAware ADS-B
Tue 06:39:35 PM 42.4600 -88.0690 89° East 571 657 37,000  Level FlightAware ADS-B
Tue 06:40:09 PM 42.4610 -87.9430 89° East 575 662 37,000  Level FlightAware ADS-B
Tue 06:40:45 PM 42.4620 -87.8100 89° East 577 664 37,000  Level FlightAware ADS-B
Tue 06:41:21 PM 42.4630 -87.6860 89° East 577 664 37,000  Level FlightAware ADS-B
Tue 06:41:52 PM 42.4640 -87.5740 89° East 576 663 37,000  Level FlightAware ADS-B
Tue 06:42:31 PM 42.4640 -87.4360 90° East 576 663 37,000  Level FlightAware ADS-B
Tue 06:43:06 PM 42.4640 -87.3000 90° East 572 658 37,000  Level FlightAware ADS-B
Tue 06:43:43 PM 42.4640 -87.1750 90° East 569 655 37,000  Level FlightAware ADS-B
Tue 06:44:14 PM 42.4640 -87.0630 90° East 567 652 37,000  Level FlightAware ADS-B
Tue 06:44:50 PM 42.4640 -86.9390 90° East 570 656 37,000  Level FlightAware ADS-B
Tue 06:45:24 PM 42.4640 -86.8220 90° East 574 661 37,000  Level FlightAware ADS-B
Tue 06:45:56 PM 42.4640 -86.7030 90° East 575 662 37,000  Level FlightAware ADS-B
Tue 06:46:36 PM 42.4630 -86.5580 90° East 574 661 37,000  Level FlightAware ADS-B
Tue 06:47:12 PM 42.4620 -86.4300 91° East 575 662 37,000  Level FlightAware ADS-B
Tue 06:47:45 PM 42.4610 -86.3150 91° East 574 661 37,000  Level FlightAware ADS-B
Tue 06:48:21 PM 42.4600 -86.1810 91° East 574 661 37,000  Level FlightAware ADS-B
Tue 06:48:56 PM 42.4590 -86.0520 91° East 574 661 37,000  Level FlightAware ADS-B
Tue 06:49:29 PM 42.4580 -85.9350 91° East 574 661 37,000  Level FlightAware ADS-B
Tue 06:50:07 PM 42.4570 -85.8010 91° East 573 659 37,000  Level FlightAware ADS-B
Tue 06:50:43 PM 42.4550 -85.6700 91° East 576 663 37,000  Level FlightAware ADS-B
Tue 06:51:15 PM 42.4540 -85.5520 91° East 576 663 37,000 87 Level FlightAware ADS-B
Tue 06:51:52 PM 42.4520 -85.4190 91° East 576 663 37,100 174 Climbing FlightAware ADS-B
Tue 06:52:24 PM 42.4500 -85.3030 91° East 574 661 37,200 269 Climbing FlightAware ADS-B
Tue 06:52:59 PM 42.4480 -85.1800 91° East 573 659 37,400 353 Climbing FlightAware ADS-B
Tue 06:53:32 PM 42.4460 -85.0650 91° East 572 658 37,600 435 Climbing FlightAware ADS-B
Tue 06:54:08 PM 42.4440 -84.9410 91° East 570 656 37,900 329 Climbing FlightAware ADS-B
Tue 06:54:45 PM 42.4410 -84.8020 92° East 571 657 38,000 82 Climbing FlightAware ADS-B
Tue 06:55:21 PM 42.4380 -84.6770 92° East 572 658 38,000  Level FlightAware ADS-B
Tue 06:55:56 PM 42.4360 -84.5530 91° East 573 659 38,000  Level FlightAware ADS-B
Tue 06:56:29 PM 42.4330 -84.4300 92° East 574 661 38,000  Level FlightAware ADS-B
Tue 06:57:05 PM 42.4300 -84.3010 92° East 570 656 38,000  Level FlightAware ADS-B
Tue 06:57:40 PM 42.4260 -84.1770 92° East 570 656 38,000  Level FlightAware ADS-B
Tue 06:58:16 PM 42.4230 -84.0570 92° East 569 655 38,000  Level FlightAware ADS-B
Tue 06:58:52 PM 42.4200 -83.9270 92° East 571 657 38,000  Level FlightAware ADS-B
Tue 06:59:24 PM 42.4160 -83.8060 93° East 573 659 38,000  Level FlightAware ADS-B
Tue 06:59:59 PM 42.4130 -83.6860 92° East 575 662 38,000  Level FlightAware ADS-B
Tue 07:00:37 PM 42.4080 -83.5450 93° East 576 663 38,000  Level FlightAware ADS-B
Tue 07:01:11 PM 42.4050 -83.4210 92° East 577 664 38,000  Level FlightAware ADS-B
Tue 07:01:47 PM 42.4000 -83.2930 93° East 578 665 38,000  Level FlightAware ADS-B
Tue 07:02:23 PM 42.3960 -83.1640 92° East 581 669 38,000  Level FlightAware ADS-B
Tue 07:02:55 PM 42.3920 -83.0510 93° East 584 672 38,000  Level FlightAware ADS-B
Tue 07:03:31 PM 42.3870 -82.9180 93° East 586 674 38,000  Level FlightAware ADS-B
Tue 07:04:08 PM 42.3820 -82.7880 93° East 587 676 38,000  Level FlightAware ADS-B
Tue 07:04:39 PM 42.3780 -82.6660 93° East 587 676 38,000  Level FlightAware ADS-B
Tue 07:05:15 PM 42.3730 -82.5350 93° East 587 676 38,000  Level FlightAware ADS-B
Tue 07:05:51 PM 42.3680 -82.4070 93° East 587 676 38,000 167 Level FlightAware ADS-B
Tue 07:06:27 PM 42.3620 -82.2790 94° East 588 677 38,200 529 Climbing FlightAware ADS-B
Tue 07:06:59 PM 42.3570 -82.1570 93° East 584 672 38,600 656 Climbing FlightAware ADS-B
Tue 07:07:31 PM 42.3520 -82.0420 93° East 584 672 38,900 324 Climbing FlightAware ADS-B
Tue 07:08:13 PM 42.3450 -81.8840 93° East 587 676 39,000 82 Climbing FlightAware ADS-B
Tue 07:08:44 PM 42.3400 -81.7740 93° East 585 673 39,000  Level FlightAware ADS-B
Tue 07:09:21 PM 42.3340 -81.6430 94° East 585 673 39,000  Level FlightAware ADS-B
Tue 07:09:56 PM 42.3280 -81.5140 94° East 585 673 39,000  Level FlightAware ADS-B
Tue 07:10:30 PM 42.3230 -81.3960 93° East 584 672 39,000  Level FlightAware ADS-B
Tue 07:11:02 PM 42.3170 -81.2780 94° East 584 672 39,000  Level FlightAware ADS-B
Tue 07:11:43 PM 42.3090 -81.1250 94° East 583 671 39,000  Level FlightAware ADS-B
Tue 07:12:15 PM 42.3030 -81.0090 94° East 583 671 39,000 91 Level FlightAware ADS-B
Tue 07:12:49 PM 42.2960 -80.8830 94° East 580 667 39,100 250 Climbing FlightAware ADS-B
Tue 07:13:27 PM 42.2890 -80.7500 94° East 576 663 39,300 358 Climbing FlightAware ADS-B
Tue 07:13:56 PM 42.2830 -80.6440 94° East 575 662 39,500 455 Climbing FlightAware ADS-B
Tue 07:14:33 PM 42.2760 -80.5150 94° East 575 662 39,800 405 Climbing FlightAware ADS-B
Tue 07:15:10 PM 42.2620 -80.3810 98° East 574 661 40,000 162 Climbing FlightAware ADS-B
Tue 07:15:47 PM 42.2450 -80.2520 100° East 575 662 40,000  Level FlightAware ADS-B
Tue 07:16:23 PM 42.2260 -80.1250 101° East 577 664 40,000  Level FlightAware ADS-B
Tue 07:16:53 PM 42.2090 -80.0160 102° East 579 666 40,000  Level FlightAware ADS-B
Tue 07:17:30 PM 42.1880 -79.8870 102° East 580 667 40,000  Level FlightAware ADS-B
Tue 07:18:07 PM 42.1690 -79.7630 102° East 577 664 40,000  Level FlightAware ADS-B
Tue 07:18:42 PM 42.1480 -79.6350 102° East 575 662 40,000  Level FlightAware ADS-B
Tue 07:19:13 PM 42.1310 -79.5320 103° East 575 662 40,000  Level FlightAware ADS-B
Tue 07:19:51 PM 42.1080 -79.3950 103° East 573 659 40,000  Level FlightAware ADS-B
Tue 07:20:24 PM 42.0890 -79.2840 103° East 574 661 40,000  Level FlightAware ADS-B
Tue 07:20:57 PM 42.0700 -79.1690 103° East 577 664 40,000  Level FlightAware ADS-B
Tue 07:21:35 PM 42.0470 -79.0310 103° East 577 664 40,000  Level FlightAware ADS-B
Tue 07:22:12 PM 42.0250 -78.9030 103° East 577 664 40,000  Level FlightAware ADS-B
Tue 07:22:45 PM 42.0050 -78.7890 103° East 577 664 40,000  Level FlightAware ADS-B
Tue 07:23:20 PM 41.9840 -78.6670 103° East 575 662 40,000  Level FlightAware ADS-B
Tue 07:23:56 PM 41.9640 -78.5460 102° East 562 647 40,000  Level FlightAware ADS-B
Tue 07:24:31 PM 41.9430 -78.4300 104° East 556 640 40,000 -553 Level FlightAware ADS-B
Tue 07:25:12 PM 41.9190 -78.2900 103° East 544 626 39,300 -1,231 Descending FlightAware ADS-B
Tue 07:25:49 PM 41.8980 -78.1720 103° East 533 613 38,400 -1,562 Descending FlightAware ADS-B
Tue 07:26:25 PM 41.8770 -78.0580 104° East 523 602 37,400 -2,261 Descending FlightAware ADS-B
Tue 07:26:58 PM 41.8580 -77.9500 103° East 529 609 35,800 -2,435 Descending FlightAware ADS-B
Tue 07:27:34 PM 41.8370 -77.8350 104° East 519 597 34,600 -1,941 Descending FlightAware ADS-B
Tue 07:28:06 PM 41.8200 -77.7390 103° East 508 585 33,600 -2,029 Descending FlightAware ADS-B
Tue 07:28:42 PM 41.8000 -77.6290 104° East 503 579 32,300 -1,333 Descending FlightAware ADS-B
Tue 07:29:18 PM 41.7770 -77.5190 106° East 511 588 32,000 -250 Descending FlightAware ADS-B
Tue 07:29:54 PM 41.7490 -77.4110 109° East 517 595 32,000  Level FlightAware ADS-B
Tue 07:30:24 PM 41.7250 -77.3240 110° East 519 597 32,000 -716 Level FlightAware ADS-B
Tue 07:31:01 PM 41.6940 -77.2090 110° East 508 585 31,200 -2,160 Descending FlightAware ADS-B
Tue 07:31:39 PM 41.6650 -77.0990 109° East 505 581 29,300 -2,704 Descending FlightAware ADS-B
Tue 07:32:12 PM 41.6390 -77.0030 110° East 497 572 28,000 -1,853 Descending FlightAware ADS-B
Tue 07:32:47 PM 41.6120 -76.9050 110° East 472 543 27,200 -857 Descending FlightAware ADS-B
Tue 07:33:22 PM 41.5870 -76.8130 110° East 464 534 27,000 -167 Descending FlightAware ADS-B
Tue 07:33:59 PM 41.5590 -76.7120 110° East 471 542 27,000 -261 Level FlightAware ADS-B
Tue 07:34:31 PM 41.5350 -76.6230 110° East 472 543 26,700 -960 Descending FlightAware ADS-B
Tue 07:35:14 PM 41.5070 -76.5220 110° East 465 535 25,800 -1,870 Descending FlightAware ADS-B
Tue 07:35:48 PM 41.4780 -76.4170 110° East 462 532 24,300 -1,367 Descending FlightAware ADS-B
Tue 07:36:33 PM 41.4430 -76.2930 111° Southeast 475 547 24,000 -231 Descending FlightAware ADS-B
Tue 07:37:06 PM 41.4190 -76.2080 111° Southeast 479 551 24,000 -188 Level FlightAware ADS-B
Tue 07:37:37 PM 41.3950 -76.1220 110° East 482 555 23,800 -833 Descending FlightAware ADS-B
Tue 07:38:18 PM 41.3620 -76.0040 110° East 468 539 23,000 -658 Descending FlightAware ADS-B
Tue 07:38:50 PM 41.3380 -75.9190 111° Southeast 468 539 23,000  Level FlightAware ADS-B
Tue 07:39:26 PM 41.3110 -75.8210 110° East 472 543 23,000  Level FlightAware ADS-B
Tue 07:40:02 PM 41.2830 -75.7240 111° Southeast 474 545 23,000  Level FlightAware ADS-B
Tue 07:40:32 PM 41.2590 -75.6480 113° Southeast 470 541 23,000  Level FlightAware ADS-B
Tue 07:41:08 PM 41.2260 -75.5470 113° Southeast 471 542 23,000  Level FlightAware ADS-B
Tue 07:41:48 PM 41.1910 -75.4430 114° Southeast 470 541 23,000  Level FlightAware ADS-B
Tue 07:42:21 PM 41.1620 -75.3570 114° Southeast 470 541 23,000  Level FlightAware ADS-B
Tue 07:43:04 PM 41.1240 -75.2440 114° Southeast 470 541 23,000  Level FlightAware ADS-B
Tue 07:43:39 PM 41.0920 -75.1510 115° Southeast 469 540 23,000  Level FlightAware ADS-B
Tue 07:44:14 PM 41.0630 -75.0640 114° Southeast 468 539 23,000  Level FlightAware ADS-B
Tue 07:44:47 PM 41.0320 -74.9750 115° Southeast 468 539 23,000  Level FlightAware ADS-B
Tue 07:45:25 PM 41.0020 -74.8800 113° Southeast 470 541 23,000  Level FlightAware ADS-B
Tue 07:45:57 PM 40.9870 -74.7880 102° East 472 543 23,000 -750 Level FlightAware ADS-B
Tue 07:46:29 PM 40.9760 -74.6960 99° East 462 532 22,200 -2,182 Descending FlightAware ADS-B
Tue 07:47:03 PM 40.9660 -74.5990 98° East 450 518 20,600 -2,571 Descending FlightAware ADS-B
Tue 07:47:39 PM 40.9560 -74.5050 98° East 436 502 19,200 -1,412 Descending FlightAware ADS-B
Tue 07:48:11 PM 40.9470 -74.4240 98° East 437 503 19,000 -171 Descending FlightAware ADS-B
Tue 07:48:49 PM 40.9360 -74.3220 98° East 437 503 19,000  Level FlightAware ADS-B
Tue 07:49:23 PM 40.9260 -74.2300 98° East 403 464 19,000  Level FlightAware ADS-B
Tue 07:49:59 PM 40.9150 -74.1500 100° East 359 413 19,000  Level FlightAware ADS-B
Tue 07:50:31 PM 40.8940 -74.0920 116° Southeast 338 389 19,000  Level FlightAware ADS-B
Tue 07:50:50 PM 40.8799 -74.0523 115° Southeast 336 387 19,000 -200 Level FlightAware ADS-B
Tue 07:51:01 PM 40.8725 -74.0324 116° Southeast 337 388 18,900 -938 Descending FlightAware ADS-B (KSNC)
Tue 07:51:22 PM 40.8584 -73.9939 116° Southeast 335 386 18,500 -1,814 Descending FlightAware ADS-B
Tue 07:51:44 PM 40.8440 -73.9537 115° Southeast 332 382 17,600 -2,432 Descending FlightAware ADS-B
Tue 07:51:59 PM 40.8349 -73.9272 115° Southeast 328 377 17,000 -2,545 Descending FlightAware ADS-B (KSNC)
Tue 07:52:17 PM 40.8232 -73.8936 115° Southeast 324 373 16,200 -2,571 Descending FlightAware ADS-B
Tue 07:52:41 PM 40.8096 -73.8540 114° Southeast 318 366 15,200 -2,516 Descending FlightAware ADS-B (KSNC)
Tue 07:53:19 PM 40.7864 -73.7850 114° Southeast 311 358 13,600 -2,164 Descending FlightAware ADS-B (KSNC)
Tue 07:53:42 PM 40.7725 -73.7446 114° Southeast 310 357 13,000 -1,371 Descending FlightAware ADS-B
Tue 07:53:54 PM 40.7658 -73.7253 115° Southeast 311 358 12,800 -837 Descending FlightAware ADS-B (KSNC)
Tue 07:54:25 PM 40.7430 -73.6760 121° Southeast 300 345 12,400 -1,029 Descending FlightAware ADS-B
Tue 07:54:29 PM 40.7379 -73.6717 148° Southeast 297 342 12,200 -2,710 Descending FlightAware ADS-B (KSNC)
Tue 07:55:27 PM 40.6620 -73.6560 171° South 293 337 9,600 -2,684 Descending FlightAware ADS-B
Tue 07:55:45 PM 40.6370 -73.6540 177° South 291 335 8,800 -2,143 Descending FlightAware ADS-B
Tue 07:56:09 PM 40.6060 -73.6530 179° South 291 335 8,100 -1,304 Descending FlightAware ADS-B
Tue 07:56:31 PM 40.5770 -73.6630 195° South 281 323 7,800 -429 Descending FlightAware ADS-B
Tue 07:56:51 PM 40.5550 -73.6790 209° Southwest 272 313 7,800  Level FlightAware ADS-B
Tue 07:57:11 PM 40.5320 -73.6950 208° Southwest 271 312 7,800  Level FlightAware ADS-B
Tue 07:57:35 PM 40.5070 -73.7130 209° Southwest 273 314 7,800  Level FlightAware ADS-B
Tue 07:57:55 PM 40.4830 -73.7290 207° Southwest 273 314 7,800  Level FlightAware ADS-B
Tue 07:58:06 PM 40.4710 -73.7380 210° Southwest 273 314 7,800 -1,000 Level FlightAware ADS-B
Tue 07:58:31 PM 40.4440 -73.7560 207° Southwest 268 308 7,200 -1,733 Descending FlightAware ADS-B
Tue 07:58:51 PM 40.4220 -73.7720 209° Southwest 267 307 6,500 -2,100 Descending FlightAware ADS-B
Tue 07:59:11 PM 40.4020 -73.7910 216° Southwest 267 307 5,800 -2,143 Descending FlightAware ADS-B
Tue 07:59:19 PM 40.3970 -73.8020 239° Southwest 265 305 5,500 -1,875 Descending FlightAware ADS-B
Tue 07:59:27 PM 40.3940 -73.8140 252° West 264 304 5,300 -2,250 Descending FlightAware ADS-B
Tue 07:59:43 PM 40.3900 -73.8400 259° West 263 303 4,600 -2,250 Descending FlightAware ADS-B
Tue 08:00:07 PM 40.3980 -73.8750 287° West 260 299 3,800 -1,953 Descending FlightAware ADS-B
Tue 08:00:26 PM 40.4080 -73.9030 295° West 266 306 3,200 -1,538 Descending FlightAware ADS-B
Tue 08:00:46 PM 40.4180 -73.9290 297° West 265 305 2,800 -571 Descending FlightAware ADS-B
Tue 08:01:08 PM 40.4290 -73.9590 296° West 244 281 2,800  Level FlightAware ADS-B
Tue 08:01:25 PM 40.4400 -73.9800 305° West 222 255 2,800  Level FlightAware ADS-B
Tue 08:01:33 PM 40.4460 -73.9850 328° Northwest 219 252 2,800  Level FlightAware ADS-B
Tue 08:01:44 PM 40.4540 -73.9890 339° North 217 250 2,800  Level FlightAware ADS-B
Tue 08:01:51 PM 40.4630 -73.9900 355° North 213 245 2,800  Level FlightAware ADS-B
Tue 08:02:13 PM 40.4830 -73.9840 13° North 204 235 2,800  Level FlightAware ADS-B
Tue 08:02:32 PM 40.5010 -73.9760 19° North 201 231 2,800  Level FlightAware ADS-B
Tue 08:02:52 PM 40.5180 -73.9680 20° North 204 235 2,800 -273 Level FlightAware ADS-B
Tue 08:03:16 PM 40.5380 -73.9560 25° Northeast 193 222 2,600 -682 Descending FlightAware ADS-B
Tue 08:03:36 PM 40.5520 -73.9440 33° Northeast 175 201 2,300 -769 Descending FlightAware ADS-B
Tue 08:03:55 PM 40.5660 -73.9330 31° Northeast 166 191 2,100 -600 Descending FlightAware ADS-B
Tue 08:04:16 PM 40.5790 -73.9220 33° Northeast 167 192 1,900 -667 Descending FlightAware ADS-B
Tue 08:04:40 PM 40.5950 -73.9090 32° Northeast 155 178 1,600 -667 Descending FlightAware ADS-B
Tue 08:05:01 PM 40.6080 -73.8990 30° Northeast 156 180 1,400 -585 Descending FlightAware ADS-B
Tue 08:05:21 PM 40.6200 -73.8880 35° Northeast 149 171 1,200 -600 Descending FlightAware ADS-B
Tue 08:05:41 PM 40.6310 -73.8800 29° Northeast 137 158 1,000 -682 Descending FlightAware ADS-B
Tue 08:06:05 PM 40.6440 -73.8700 30° Northeast 134 154 700 -682 Descending FlightAware ADS-B
Tue 08:06:25 PM 40.6540 -73.8620 31° Northeast 132 152 500 -333 Descending FlightAware ADS-B
Tue 08:06:41 PM 40.6610 -73.8530 44° Northeast 130 150 500  Level FlightAware ADS-B
Tue 08:06:53 PM 40.6650 -73.8440 60° Northeast 131 151 500  Level FlightAware ADS-B
Tue 08:07:05 PM 40.6670 -73.8350 74° East 130 150 500 -300 Level FlightAware ADS-B
Tue 08:07:13 PM 40.6670 -73.8290 90° East 131 151 400 -474 Descending FlightAware ADS-B
Tue 08:07:43 PM 40.6640 -73.8050 99° East 125 144 200 -474 Descending FlightAware ADS-B
Tue 08:07:51 PM 40.6620 -73.8000 118° Southeast 128 147 100 -750 Descending FlightAware ADS-B
Tue 08:08:09 PM 40.6570 -73.7880 119° Southeast 131 151 -333 Descending FlightAware ADS-B
Tue 08:08:31 PM 40.6510 -73.7750 121° Southeast 76 87  Level FlightAware ADS-B

Login

Don't have an account? Register now (free) for customized features, flight alerts, and more!